Time;durP1;ratioP1;P1;durP2;ratioP2;P2;SDS_P1;SDS_P2;PMS_P1;PMS_P2;Temp;Humidity;BMP_temperature;BMP_pressure;BME280_temperature;BME280_humidity;BME280_pressure;Samples;Min_cycle;Max_cycle;Signal;HPM_P1;HPM_P2
2022/07/31 00:01:37;;;;;;;;;;;;;;;21.16;68.68;101056.66;5001601;28;19922;-79
2022/07/31 00:04:04;;;;;;;;;;;;;;;21.16;68.98;101055.84;4998580;28;20400;-79
2022/07/31 00:06:30;;;;;;;;;;;;;;;21.16;68.95;101058.50;5000858;28;19997;-80
2022/07/31 00:08:58;;;;;;;;;;;;;;;21.09;69.09;101055.06;4999237;28;19922;-80
2022/07/31 00:11:25;;;;;;;;;;;;;;;21.03;69.00;101048.75;4999961;28;19921;-79
2022/07/31 00:13:51;;;;;;;;;;;;;;;20.97;69.32;101054.94;5000994;28;19949;-80
2022/07/31 00:16:17;;;;;;;;;;;;;;;20.88;69.55;101054.38;5001856;28;19961;-80
2022/07/31 00:18:44;;;;;;;;;;;;;;;20.91;69.42;101060.28;4997820;28;20012;-78
2022/07/31 00:21:12;;;;;;;;;;;;;;;20.97;69.37;101051.47;4999134;28;20388;-78
2022/07/31 00:23:39;;;;;;;;;;;;;;;20.90;69.61;101046.16;4998046;28;19922;-78
2022/07/31 00:26:07;;;;;;;;;;;;;;;20.90;69.51;101048.00;4998722;28;19921;-80
2022/07/31 00:28:34;;;;;;;;;;;;;;;20.87;69.89;101044.75;5000067;28;20423;-80
2022/07/31 00:31:00;;;;;;;;;;;;;;;20.81;69.77;101045.59;5005365;28;19956;-79
2022/07/31 00:33:26;;;;;;;;;;;;;;;20.79;70.22;101041.56;5005113;28;19922;-80
2022/07/31 00:35:53;;;;;;;;;;;;;;;20.80;69.99;101038.66;5004523;28;19922;-80
2022/07/31 00:38:20;;;;;;;;;;;;;;;20.72;70.46;101036.28;5003360;28;19922;-79
2022/07/31 00:40:47;;;;;;;;;;;;;;;20.67;70.53;101028.09;5003762;28;19976;-81
2022/07/31 00:43:18;;;;;;;;;;;;;;;20.63;70.52;101032.22;5004159;28;19929;-78
2022/07/31 00:45:52;;;;;;;;;;;;;;;20.55;70.93;101024.47;5002237;28;20039;-80
2022/07/31 00:48:19;;;;;;;;;;;;;;;20.50;70.90;101026.97;5001617;28;19922;-80
2022/07/31 00:50:45;;;;;;;;;;;;;;;20.48;71.04;101023.69;4999986;28;20045;-78
2022/07/31 00:53:12;;;;;;;;;;;;;;;20.42;71.28;101022.69;4999180;28;19921;-78
2022/07/31 00:55:38;;;;;;;;;;;;;;;20.39;71.66;101019.63;4998766;28;19954;-77
2022/07/31 00:58:04;;;;;;;;;;;;;;;20.38;71.64;101020.66;5001059;28;19925;-79
2022/07/31 01:00:32;;;;;;;;;;;;;;;20.35;71.50;101015.72;5002394;28;19957;-79
2022/07/31 01:02:59;;;;;;;;;;;;;;;20.29;71.55;101017.41;5002772;28;19932;-79
2022/07/31 01:05:25;;;;;;;;;;;;;;;20.31;71.20;101018.03;5004925;28;19921;-78
2022/07/31 01:07:52;;;;;;;;;;;;;;;20.30;71.37;101007.59;5004145;28;19922;-79
2022/07/31 01:10:22;;;;;;;;;;;;;;;20.23;71.11;101014.78;4996368;28;20348;-79
2022/07/31 01:12:52;;;;;;;;;;;;;;;20.28;70.79;101002.50;4995695;28;19932;-78
2022/07/31 01:15:19;;;;;;;;;;;;;;;20.17;71.08;101005.81;4995652;28;20455;-78
2022/07/31 01:17:49;;;;;;;;;;;;;;;20.16;71.17;101007.66;5002232;28;19921;-79
2022/07/31 01:20:16;;;;;;;;;;;;;;;20.24;70.91;101005.78;5002564;28;20351;-78
2022/07/31 01:22:52;;;;;;;;;;;;;;;20.14;70.80;101015.00;5003314;28;19956;-79
2022/07/31 01:25:27;;;;;;;;;;;;;;;20.11;70.99;101006.63;5002739;28;19925;-79
2022/07/31 01:28:01;;;;;;;;;;;;;;;20.05;71.54;101018.91;4998992;28;19922;-79
2022/07/31 01:30:32;;;;;;;;;;;;;;;20.05;72.04;101016.25;5001578;28;19929;-78
2022/07/31 01:33:01;;;;;;;;;;;;;;;20.02;72.27;101014.00;4999971;28;19922;-78
2022/07/31 01:35:29;;;;;;;;;;;;;;;19.92;72.65;101002.19;5000184;28;19921;-77
2022/07/31 01:37:58;;;;;;;;;;;;;;;19.85;72.48;101013.63;4999960;28;19921;-78
2022/07/31 01:40:27;;;;;;;;;;;;;;;19.83;72.72;101014.91;4998736;28;20020;-78
2022/07/31 01:42:56;;;;;;;;;;;;;;;19.83;73.18;101020.22;5002066;28;19922;-79
2022/07/31 01:45:26;;;;;;;;;;;;;;;19.83;73.55;101012.25;5001317;28;19968;-81
2022/07/31 01:47:54;;;;;;;;;;;;;;;19.81;73.76;101011.63;5002171;28;19965;-80
2022/07/31 01:50:22;;;;;;;;;;;;;;;19.78;73.97;101012.03;5003632;28;19977;-80
2022/07/31 01:52:50;;;;;;;;;;;;;;;19.79;74.25;101003.06;5003485;28;19937;-80
2022/07/31 01:57:48;;;;;;;;;;;;;;;19.67;74.69;101012.66;4975506;28;19953;-78
2022/07/31 02:00:17;;;;;;;;;;;;;;;19.70;74.73;101015.72;4978437;28;19965;-79
2022/07/31 02:02:44;;;;;;;;;;;;;;;19.65;74.31;101018.19;4977329;28;19929;-79
2022/07/31 02:05:16;;;;;;;;;;;;;;;19.55;73.95;101007.97;4979292;28;21156;-78
2022/07/31 02:07:43;;;;;;;;;;;;;;;19.54;73.98;101013.50;4978258;28;19926;-79
2022/07/31 02:10:10;;;;;;;;;;;;;;;19.43;74.19;101006.94;4977779;28;19976;-79
2022/07/31 02:12:37;;;;;;;;;;;;;;;19.41;74.34;101001.00;4978470;28;19922;-79
2022/07/31 02:15:06;;;;;;;;;;;;;;;19.46;74.65;101013.66;4981008;28;19926;-79
2022/07/31 02:17:41;;;;;;;;;;;;;;;19.41;74.74;101006.31;4981356;28;19937;-80
2022/07/31 02:20:10;;;;;;;;;;;;;;;19.24;75.32;101005.09;4981937;28;19922;-80
2022/07/31 02:22:38;;;;;;;;;;;;;;;19.23;75.51;101004.28;4982400;28;19922;-79
2022/07/31 02:25:06;;;;;;;;;;;;;;;19.16;75.97;101007.97;4989763;28;19926;-83
2022/07/31 02:27:33;;;;;;;;;;;;;;;19.11;76.03;101007.75;4988492;28;19922;-78
2022/07/31 02:30:02;;;;;;;;;;;;;;;19.08;76.37;101002.84;4982470;28;20308;-80
2022/07/31 02:32:29;;;;;;;;;;;;;;;19.16;76.22;101008.78;4980712;28;19921;-80
2022/07/31 02:34:56;;;;;;;;;;;;;;;19.21;75.97;101001.03;4980661;28;19922;-80
2022/07/31 02:37:23;;;;;;;;;;;;;;;19.23;76.10;101014.09;4979418;28;20004;-82
2022/07/31 02:39:52;;;;;;;;;;;;;;;19.29;75.97;101015.13;4980783;28;19951;-81
2022/07/31 02:42:19;;;;;;;;;;;;;;;19.32;75.34;101012.06;4981425;28;19929;-82
2022/07/31 02:44:46;;;;;;;;;;;;;;;19.35;75.04;101011.66;4980969;28;19972;-81
2022/07/31 02:47:13;;;;;;;;;;;;;;;19.39;74.36;101003.03;4980257;28;19993;-81
2022/07/31 02:49:40;;;;;;;;;;;;;;;19.34;74.83;101002.06;4981456;28;19985;-80
2022/07/31 02:52:07;;;;;;;;;;;;;;;19.29;74.81;101013.28;4985506;28;20028;-80
2022/07/31 02:54:34;;;;;;;;;;;;;;;19.30;74.58;100998.19;4981351;28;19933;-80
2022/07/31 02:57:03;;;;;;;;;;;;;;;19.14;75.32;101008.16;4979610;28;20044;-80
2022/07/31 02:59:29;;;;;;;;;;;;;;;19.14;75.65;101010.81;4979993;28;19922;-80
2022/07/31 03:01:55;;;;;;;;;;;;;;;19.11;75.79;100997.94;4980292;28;19960;-80
2022/07/31 03:04:22;;;;;;;;;;;;;;;19.06;76.05;101004.88;4979257;28;19976;-79
2022/07/31 03:06:49;;;;;;;;;;;;;;;19.02;76.46;101006.31;4980176;28;19945;-80
2022/07/31 03:09:15;;;;;;;;;;;;;;;19.01;76.58;101008.13;4980349;28;20301;-79
2022/07/31 03:11:42;;;;;;;;;;;;;;;18.98;76.89;101005.06;4980510;28;20008;-81
2022/07/31 03:14:11;;;;;;;;;;;;;;;19.02;76.86;101014.25;4981035;28;19929;-81
2022/07/31 03:16:39;;;;;;;;;;;;;;;19.06;76.81;101010.19;4984634;28;20393;-82
2022/07/31 03:19:07;;;;;;;;;;;;;;;19.13;76.74;101014.47;4983893;28;19968;-81
2022/07/31 03:21:34;;;;;;;;;;;;;;;19.27;76.41;101015.31;4981257;28;19929;-82
2022/07/31 03:24:00;;;;;;;;;;;;;;;19.32;75.81;101007.56;4982398;28;19922;-80
2022/07/31 03:26:27;;;;;;;;;;;;;;;19.39;75.53;101016.31;4982402;28;19957;-79
2022/07/31 03:28:54;;;;;;;;;;;;;;;19.39;75.33;101012.84;4980408;28;20005;-79
2022/07/31 03:31:22;;;;;;;;;;;;;;;19.43;75.08;101012.22;4979975;28;19964;-80
2022/07/31 03:33:48;;;;;;;;;;;;;;;19.53;74.50;101004.72;4982432;28;19922;-80
2022/07/31 03:36:14;;;;;;;;;;;;;;;19.54;74.76;101000.22;4983321;28;19973;-79
2022/07/31 03:38:41;;;;;;;;;;;;;;;19.51;74.95;101006.75;4982420;28;19972;-80
2022/07/31 03:41:07;;;;;;;;;;;;;;;19.49;74.83;100998.16;4984185;28;20349;-79
2022/07/31 03:43:34;;;;;;;;;;;;;;;19.52;75.06;100997.78;4983201;28;20012;-81
2022/07/31 03:46:01;;;;;;;;;;;;;;;19.53;74.67;100994.09;4982271;28;19922;-81
2022/07/31 03:48:30;;;;;;;;;;;;;;;19.61;74.21;101000.22;4982650;28;20021;-80
2022/07/31 03:50:56;;;;;;;;;;;;;;;19.62;73.88;101007.16;4982218;28;19968;-80
2022/07/31 03:53:23;;;;;;;;;;;;;;;19.66;73.94;101001.22;4980642;28;19958;-79
2022/07/31 03:55:50;;;;;;;;;;;;;;;19.73;73.55;100998.56;4980878;28;19962;-79
2022/07/31 03:58:18;;;;;;;;;;;;;;;19.71;73.53;101006.75;4981059;28;20388;-78
2022/07/31 04:00:45;;;;;;;;;;;;;;;19.70;73.26;100994.50;4980971;28;19985;-81
2022/07/31 04:03:12;;;;;;;;;;;;;;;19.73;73.52;101003.88;4981650;28;19922;-78
2022/07/31 04:05:40;;;;;;;;;;;;;;;19.76;73.43;101009.59;4981640;28;20388;-80
2022/07/31 04:08:06;;;;;;;;;;;;;;;19.76;73.27;101006.13;4981086;28;19968;-80
2022/07/31 04:10:34;;;;;;;;;;;;;;;19.77;73.39;101002.44;4981276;28;19973;-80
2022/07/31 04:13:01;;;;;;;;;;;;;;;19.81;73.32;101008.97;4981779;28;19922;-79
2022/07/31 04:15:27;;;;;;;;;;;;;;;19.87;72.98;101006.28;4980679;28;19945;-80
2022/07/31 04:17:54;;;;;;;;;;;;;;;19.91;72.81;101006.69;4980380;28;19961;-78
2022/07/31 04:20:21;;;;;;;;;;;;;;;19.89;72.76;101008.72;4981864;28;19922;-79
2022/07/31 04:22:49;;;;;;;;;;;;;;;19.91;72.99;101006.69;4982085;28;19922;-79
2022/07/31 04:25:15;;;;;;;;;;;;;;;19.94;72.95;101005.44;4983084;28;19958;-80
2022/07/31 04:27:42;;;;;;;;;;;;;;;19.94;72.94;101008.94;4982836;28;19922;-80
2022/07/31 04:30:09;;;;;;;;;;;;;;;19.92;72.64;101005.66;4983130;28;19969;-80
2022/07/31 04:32:36;;;;;;;;;;;;;;;19.92;73.42;101002.19;4982136;28;19929;-79
2022/07/31 04:35:02;;;;;;;;;;;;;;;19.94;73.54;101005.44;4981059;28;19969;-80
2022/07/31 04:37:29;;;;;;;;;;;;;;;19.95;73.33;100999.94;4981460;28;19945;-79
2022/07/31 04:39:57;;;;;;;;;;;;;;;19.93;73.46;100999.31;4980483;28;19929;-79
2022/07/31 04:42:25;;;;;;;;;;;;;;;19.95;73.12;101005.25;4980327;28;19922;-79
2022/07/31 04:44:52;;;;;;;;;;;;;;;19.97;73.68;101010.34;4981733;28;20326;-78
2022/07/31 04:47:18;;;;;;;;;;;;;;;20.01;73.02;101006.25;4981685;28;19965;-80
2022/07/31 04:49:44;;;;;;;;;;;;;;;20.08;73.07;101007.06;4980350;28;20069;-78
2022/07/31 04:52:11;;;;;;;;;;;;;;;20.16;72.42;101015.63;4978803;28;20004;-78
2022/07/31 04:54:38;;;;;;;;;;;;;;;20.23;72.27;101006.81;4978856;28;19961;-78
2022/07/31 04:57:06;;;;;;;;;;;;;;;20.11;72.40;101010.13;4979220;28;19933;-79
2022/07/31 04:59:32;;;;;;;;;;;;;;;20.15;72.61;100998.03;4980254;28;20364;-79
2022/07/31 05:01:58;;;;;;;;;;;;;;;20.18;72.65;101008.25;4980454;28;20377;-79
2022/07/31 05:04:26;;;;;;;;;;;;;;;20.30;72.36;100997.78;4978089;28;19976;-79
2022/07/31 05:06:52;;;;;;;;;;;;;;;20.39;72.06;101004.50;4978146;28;19922;-79
2022/07/31 05:09:21;;;;;;;;;;;;;;;20.41;71.91;101009.59;4981502;28;19976;-79
2022/07/31 05:11:47;;;;;;;;;;;;;;;20.44;72.01;101014.50;4981529;28;20340;-79
2022/07/31 05:14:16;;;;;;;;;;;;;;;20.52;71.74;101014.28;4980976;28;19933;-80
2022/07/31 05:16:43;;;;;;;;;;;;;;;20.66;71.40;101015.84;4979246;28;19977;-79
2022/07/31 05:19:09;;;;;;;;;;;;;;;20.85;71.19;101017.56;4980275;28;19965;-78
2022/07/31 05:21:35;;;;;;;;;;;;;;;20.97;70.83;101011.56;4979456;28;19964;-79
2022/07/31 05:24:05;;;;;;;;;;;;;;;21.09;70.54;101015.16;4981492;28;19957;-79
2022/07/31 05:26:31;;;;;;;;;;;;;;;21.16;70.31;101010.59;4981442;28;19966;-79
2022/07/31 05:28:59;;;;;;;;;;;;;;;21.29;70.39;101018.50;4980987;28;19977;-78
2022/07/31 05:31:27;;;;;;;;;;;;;;;21.34;70.65;101001.88;4981080;28;19992;-80
2022/07/31 05:33:54;;;;;;;;;;;;;;;21.35;70.66;100999.00;4980664;28;19933;-79
2022/07/31 05:36:20;;;;;;;;;;;;;;;21.44;69.56;101003.03;4981382;28;19956;-80
2022/07/31 05:38:47;;;;;;;;;;;;;;;21.27;70.32;101007.25;4979799;28;19922;-80
2022/07/31 05:41:14;;;;;;;;;;;;;;;21.19;70.31;101015.50;4981280;28;19922;-80
2022/07/31 05:43:40;;;;;;;;;;;;;;;21.14;70.42;101016.16;4981938;28;20237;-79
2022/07/31 05:46:07;;;;;;;;;;;;;;;21.14;70.64;101015.31;4982044;28;19922;-80
2022/07/31 05:48:35;;;;;;;;;;;;;;;21.43;69.93;101012.03;4981827;28;19922;-80
2022/07/31 05:51:01;;;;;;;;;;;;;;;21.63;68.58;101000.41;4982114;28;19922;-79
2022/07/31 05:53:27;;;;;;;;;;;;;;;22.09;67.64;101005.28;4982101;28;20404;-80
2022/07/31 05:55:54;;;;;;;;;;;;;;;22.32;67.15;101010.72;4983401;28;19973;-79
2022/07/31 05:58:20;;;;;;;;;;;;;;;22.13;67.28;101001.94;4985536;28;19945;-80
2022/07/31 06:00:48;;;;;;;;;;;;;;;22.27;66.62;101009.75;4984077;28;19929;-80
2022/07/31 06:03:15;;;;;;;;;;;;;;;22.14;67.44;101005.44;4981783;28;19961;-80
2022/07/31 06:05:44;;;;;;;;;;;;;;;21.99;67.88;101005.75;4980874;28;19968;-79
2022/07/31 06:08:11;;;;;;;;;;;;;;;21.79;68.03;101000.63;4981632;28;20372;-82
2022/07/31 06:10:37;;;;;;;;;;;;;;;21.77;68.54;101008.03;4979949;28;19929;-79
2022/07/31 06:13:04;;;;;;;;;;;;;;;21.86;68.21;101003.22;4978829;28;19965;-78
2022/07/31 06:15:30;;;;;;;;;;;;;;;21.81;68.64;101003.06;4976419;28;19970;-79
2022/07/31 06:17:57;;;;;;;;;;;;;;;21.81;68.52;101013.72;4978682;28;20373;-78
2022/07/31 06:20:24;;;;;;;;;;;;;;;22.24;67.89;101007.53;4977478;28;19930;-80
2022/07/31 06:22:52;;;;;;;;;;;;;;;22.21;67.49;101008.84;4977603;28;20354;-78
2022/07/31 06:25:18;;;;;;;;;;;;;;;22.24;67.64;101007.53;4979922;28;19929;-79
2022/07/31 06:27:45;;;;;;;;;;;;;;;22.33;67.46;101011.53;4981060;28;19961;-80
2022/07/31 06:30:13;;;;;;;;;;;;;;;22.36;67.57;101005.75;4961716;29;19922;-79
2022/07/31 06:32:39;;;;;;;;;;;;;;;22.36;67.33;101013.75;4960526;29;19969;-80
2022/07/31 06:35:06;;;;;;;;;;;;;;;22.06;68.12;100997.72;4959722;29;19923;-79
2022/07/31 06:37:34;;;;;;;;;;;;;;;22.19;68.48;101000.25;4960579;29;19922;-79
2022/07/31 06:40:03;;;;;;;;;;;;;;;22.21;68.55;101003.50;4979304;28;19969;-81
2022/07/31 06:42:37;;;;;;;;;;;;;;;22.39;68.66;100999.97;4979848;28;19926;-81
2022/07/31 06:45:18;;;;;;;;;;;;;;;22.40;68.24;100993.59;4979099;28;19926;-80
2022/07/31 06:47:44;;;;;;;;;;;;;;;22.46;67.18;100985.53;4979441;28;20000;-78
2022/07/31 06:50:11;;;;;;;;;;;;;;;22.36;67.31;100984.44;4981407;28;19948;-81
2022/07/31 06:52:37;;;;;;;;;;;;;;;22.56;67.54;100990.31;4983261;28;19934;-81
2022/07/31 06:55:06;;;;;;;;;;;;;;;22.60;67.57;100993.34;4983444;28;19926;-81
2022/07/31 06:57:42;;;;;;;;;;;;;;;22.47;67.45;100992.47;4982472;28;19944;-80
2022/07/31 07:03:11;;;;;;;;;;;;;;;22.05;67.76;101004.91;4971278;28;19923;-81
2022/07/31 07:05:38;;;;;;;;;;;;;;;21.95;67.61;101017.88;4962808;29;19997;-78
2022/07/31 07:08:23;;;;;;;;;;;;;;;22.02;68.17;101016.00;4963290;29;19933;-80
2022/07/31 07:16:49;;;;;;;;;;;;;;;21.45;71.42;101020.63;4983841;28;20291;-80
2022/07/31 07:19:16;;;;;;;;;;;;;;;21.30;72.61;101022.78;4983957;28;19929;-79
2022/07/31 07:21:48;;;;;;;;;;;;;;;21.19;72.61;101026.16;4984243;28;19948;-80
2022/07/31 07:24:15;;;;;;;;;;;;;;;21.24;73.02;101017.53;4983454;28;19926;-82
2022/07/31 07:26:42;;;;;;;;;;;;;;;21.06;72.87;101021.72;4983274;28;19922;-82
2022/07/31 07:29:10;;;;;;;;;;;;;;;21.25;72.76;101017.31;4983470;28;20379;-81
2022/07/31 07:31:39;;;;;;;;;;;;;;;21.01;73.13;101016.22;4982854;28;20103;-80
2022/07/31 07:34:08;;;;;;;;;;;;;;;20.91;73.41;101020.38;4983502;28;19940;-83
2022/07/31 07:36:34;;;;;;;;;;;;;;;21.11;73.29;101018.41;4984508;28;20022;-82
2022/07/31 07:39:00;;;;;;;;;;;;;;;21.29;72.28;101009.69;4984084;28;19988;-80
2022/07/31 07:41:27;;;;;;;;;;;;;;;21.38;72.03;101003.06;4984442;28;19957;-81
2022/07/31 07:43:55;;;;;;;;;;;;;;;21.49;71.60;101008.50;4985626;28;19922;-83
2022/07/31 07:46:22;;;;;;;;;;;;;;;21.48;71.43;101006.06;4984165;28;19954;-81
2022/07/31 07:48:49;;;;;;;;;;;;;;;21.72;71.19;100999.09;4985320;28;19926;-82
2022/07/31 07:51:16;;;;;;;;;;;;;;;21.98;70.51;100997.97;4986955;28;19929;-81
2022/07/31 07:53:42;;;;;;;;;;;;;;;22.13;70.30;100987.81;4988252;28;19929;-80
2022/07/31 07:56:09;;;;;;;;;;;;;;;22.62;68.67;100976.09;5018172;23;20366;-81
2022/07/31 07:58:35;;;;;;;;;;;;;;;23.07;67.23;100973.78;5037579;28;19983;-81
2022/07/31 08:01:03;;;;;;;;;;;;;;;23.42;66.21;100984.47;5037794;28;19971;-81
2022/07/31 08:03:29;;;;;;;;;;;;;;;23.43;64.86;100977.28;5038419;28;19932;-81
2022/07/31 08:05:56;;;;;;;;;;;;;;;23.98;63.86;100976.91;5038939;28;20299;-81
2022/07/31 08:08:22;;;;;;;;;;;;;;;24.35;63.31;100966.69;5036910;28;19956;-79
2022/07/31 08:10:49;;;;;;;;;;;;;;;25.39;60.49;100976.00;5038431;28;20079;-79
2022/07/31 08:13:15;;;;;;;;;;;;;;;27.01;56.18;100978.97;5036642;28;19921;-80
2022/07/31 08:15:42;;;;;;;;;;;;;;;27.25;54.66;100982.94;5036562;28;19964;-78
2022/07/31 08:18:09;;;;;;;;;;;;;;;27.25;54.00;100974.88;5039290;28;19955;-79
2022/07/31 08:20:36;;;;;;;;;;;;;;;27.96;53.41;100971.75;5038472;28;19929;-80
2022/07/31 08:23:03;;;;;;;;;;;;;;;27.35;53.77;100968.75;5044670;28;19928;-81
2022/07/31 08:25:30;;;;;;;;;;;;;;;27.93;53.10;100965.03;5044557;28;19921;-79
2022/07/31 08:27:56;;;;;;;;;;;;;;;27.74;53.73;100966.56;5044197;28;19925;-79
2022/07/31 08:30:24;;;;;;;;;;;;;;;27.63;53.27;100964.91;5045145;28;19921;-79
2022/07/31 08:32:51;;;;;;;;;;;;;;;28.20;53.24;100970.25;5039942;28;19925;-80
2022/07/31 08:35:19;;;;;;;;;;;;;;;29.19;50.53;100965.53;5039023;28;19921;-80
2022/07/31 08:37:46;;;;;;;;;;;;;;;27.73;53.96;100959.59;5038711;28;19921;-81
2022/07/31 08:40:12;;;;;;;;;;;;;;;28.17;53.10;100964.59;5041071;28;20446;-80
2022/07/31 08:42:39;;;;;;;;;;;;;;;28.41;52.55;100963.03;5039985;28;19928;-78
2022/07/31 08:45:06;;;;;;;;;;;;;;;28.35;53.00;100956.88;5039232;28;20164;-76
2022/07/31 08:47:34;;;;;;;;;;;;;;;28.47;52.80;100964.69;5037816;28;19952;-80
2022/07/31 08:50:01;;;;;;;;;;;;;;;27.78;53.52;100962.28;5038778;28;19925;-79
2022/07/31 08:52:31;;;;;;;;;;;;;;;26.96;55.38;100965.50;5043700;28;20445;-80
2022/07/31 08:54:57;;;;;;;;;;;;;;;26.37;58.21;100954.75;5043077;28;19929;-79
2022/07/31 08:57:25;;;;;;;;;;;;;;;25.80;58.54;100939.06;5043415;28;19971;-78
2022/07/31 08:59:53;;;;;;;;;;;;;;;25.63;59.54;100944.41;5043176;28;19944;-79
2022/07/31 09:02:19;;;;;;;;;;;;;;;24.91;61.19;100948.97;5044001;28;19928;-81
2022/07/31 09:04:47;;;;;;;;;;;;;;;24.94;62.85;100946.59;5041592;28;19921;-79
2022/07/31 09:07:15;;;;;;;;;;;;;;;24.57;64.35;100953.47;5037935;28;19921;-78
2022/07/31 09:11:21;;;;;;;3.45;3.05;;;;;;;24.39;64.82;100957.16;5050609;27;1589260;-79
2022/07/31 09:13:54;;;;;;;4.90;3.17;;;;;;;24.54;63.50;100960.13;5036482;28;20140;-78
2022/07/31 09:16:22;;;;;;;6.80;3.25;;;;;;;24.28;64.30;100955.31;5039477;28;20054;-80
2022/07/31 09:18:55;;;;;;;5.65;3.30;;;;;;;24.60;63.41;100959.13;5040722;28;20064;-80
2022/07/31 09:21:22;;;;;;;5.75;3.33;;;;;;;24.64;63.64;100962.13;5048843;28;20435;-79
2022/07/31 09:26:16;;;;;;;5.20;3.60;;;;;;;24.75;62.50;100948.69;5029895;28;20046;-81
2022/07/31 09:28:46;;;;;;;5.53;3.65;;;;;;;25.70;60.52;100942.41;5032751;28;20088;-80
2022/07/31 09:31:13;;;;;;;4.07;3.42;;;;;;;26.27;59.33;100941.19;5033358;28;20074;-80
2022/07/31 09:33:43;;;;;;;6.80;3.42;;;;;;;25.46;60.85;100949.03;5032025;28;20449;-81
2022/07/31 09:36:13;;;;;;;5.47;3.63;;;;;;;25.06;61.86;100946.53;5031485;28;20065;-81
2022/07/31 09:38:42;;;;;;;5.80;3.60;;;;;;;25.62;61.08;100944.66;5031310;28;20057;-81
2022/07/31 09:41:10;;;;;;;4.80;3.38;;;;;;;25.97;60.09;100939.81;5032588;28;20055;-82
2022/07/31 09:43:38;;;;;;;3.88;3.08;;;;;;;26.73;57.62;100945.16;5032269;28;20085;-81
2022/07/31 09:46:08;;;;;;;4.88;3.40;;;;;;;26.23;58.25;100940.06;5030395;28;20069;-81
2022/07/31 09:48:39;;;;;;;6.60;3.28;;;;;;;26.03;59.49;100952.19;5031253;28;20057;-80
2022/07/31 09:51:07;;;;;;;4.35;3.10;;;;;;;26.60;58.15;100940.19;5032087;28;20497;-79
2022/07/31 09:53:42;;;;;;;6.50;3.70;;;;;;;27.02;56.35;100945.66;5023547;28;20058;-80
2022/07/31 09:56:11;;;;;;;5.57;3.10;;;;;;;26.97;56.31;100946.44;5019102;28;20657;-83
2022/07/31 09:58:38;;;;;;;3.72;3.13;;;;;;;26.34;57.64;100947.19;5020772;28;20041;-80
2022/07/31 10:01:08;;;;;;;3.17;2.88;;;;;;;26.16;58.54;100934.91;5025716;28;20046;-79
2022/07/31 10:03:36;;;;;;;4.22;3.40;;;;;;;26.06;59.09;100937.47;5025419;28;20046;-80
2022/07/31 10:06:04;;;;;;;4.80;3.00;;;;;;;26.28;58.68;100932.09;5013709;28;20053;-83
2022/07/31 10:08:35;;;;;;;3.70;2.90;;;;;;;26.42;58.78;100933.34;5023731;28;20053;-82
2022/07/31 10:11:14;;;;;;;5.97;3.27;;;;;;;26.66;58.29;100923.88;5032391;28;20120;-82
2022/07/31 10:13:49;;;;;;;3.00;2.70;;;;;;;26.50;57.76;100924.00;5034093;28;20080;-83
2022/07/31 10:16:21;;;;;;;5.72;3.20;;;;;;;26.83;57.01;100944.44;5033231;28;20053;-80
2022/07/31 10:18:53;;;;;;;3.47;3.10;;;;;;;26.89;57.03;100933.47;5030737;28;20103;-79
2022/07/31 10:21:27;;;;;;;5.03;3.00;;;;;;;26.58;57.54;100935.06;5027398;28;20060;-81
2022/07/31 10:23:56;;;;;;;3.85;2.95;;;;;;;27.09;56.55;100928.28;5020042;28;20057;-82
2022/07/31 10:26:23;;;;;;;3.70;3.28;;;;;;;27.16;56.46;100932.63;5025155;28;20061;-81
2022/07/31 10:28:50;;;;;;;5.68;3.38;;;;;;;26.96;56.72;100931.38;5024057;28;20046;-82
2022/07/31 10:31:19;;;;;;;5.72;3.45;;;;;;;27.28;55.58;100919.81;5006441;28;20106;-82
2022/07/31 10:33:46;;;;;;;6.80;3.28;;;;;;;27.03;55.88;100923.13;5002187;28;20136;-82
2022/07/31 10:36:19;;;;;;;3.90;3.13;;;;;;;26.56;57.72;100926.47;5003547;28;20312;-82
2022/07/31 10:38:54;;;;;;;4.65;3.20;;;;;;;26.56;57.55;100923.78;5015780;28;20074;-82
2022/07/31 10:41:32;;;;;;;3.50;3.10;;;;;;;26.83;56.88;100923.75;5017572;28;20060;-82
2022/07/31 10:44:03;;;;;;;5.35;3.42;;;;;;;26.71;57.05;100909.69;5012684;28;20471;-81
2022/07/31 10:46:33;;;;;;;4.32;3.40;;;;;;;26.62;57.12;100916.59;5018867;28;20053;-83
2022/07/31 10:49:00;;;;;;;4.30;3.30;;;;;;;26.44;58.22;100920.47;5013162;28;20050;-81
2022/07/31 10:51:27;;;;;;;7.60;3.33;;;;;;;26.76;57.91;100918.59;5016269;28;20073;-81
2022/07/31 10:53:55;;;;;;;3.65;3.28;;;;;;;26.97;56.98;100918.78;5018143;28;20060;-82
2022/07/31 10:56:22;;;;;;;5.25;3.47;;;;;;;26.83;56.22;100914.91;5015561;28;20096;-84
2022/07/31 10:58:49;;;;;;;6.47;3.65;;;;;;;25.85;57.98;100904.25;5018686;28;20088;-82
2022/07/31 11:01:17;;;;;;;5.53;4.10;;;;;;;26.37;57.71;100906.44;5018074;28;20056;-84
2022/07/31 11:03:47;;;;;;;4.57;3.30;;;;;;;26.78;56.94;100905.75;5015568;28;20146;-80
2022/07/31 11:06:15;;;;;;;4.47;3.40;;;;;;;27.16;56.24;100908.44;5017250;28;20050;-81
2022/07/31 11:08:43;;;;;;;6.53;3.40;;;;;;;27.11;55.95;100906.53;5017610;28;20088;-81
2022/07/31 11:11:10;;;;;;;5.25;3.38;;;;;;;26.68;56.01;100899.47;5018938;28;20046;-81
2022/07/31 11:13:50;;;;;;;6.55;3.90;;;;;;;26.57;56.32;100903.13;5019866;28;20077;-83
2022/07/31 11:16:17;;;;;;;4.43;3.28;;;;;;;27.20;54.76;100907.66;5020382;28;20050;-83
2022/07/31 11:18:57;;;;;;;3.35;3.05;;;;;;;27.32;55.26;100902.09;5020420;28;20054;-82
2022/07/31 11:21:31;;;;;;;7.30;3.17;;;;;;;27.34;55.00;100903.47;5009737;28;20046;-83
2022/07/31 11:23:58;;;;;;;3.92;3.30;;;;;;;27.21;53.69;100903.09;5019699;28;20572;-84
2022/07/31 11:26:25;;;;;;;4.32;3.15;;;;;;;27.50;53.28;100903.50;5017112;28;20054;-82
2022/07/31 11:28:52;;;;;;;5.35;3.22;;;;;;;27.41;53.74;100897.84;5019479;28;20060;-83
2022/07/31 11:31:18;;;;;;;4.57;3.47;;;;;;;27.71;53.75;100892.63;5019088;28;20076;-83
2022/07/31 11:33:48;;;;;;;5.05;3.35;;;;;;;27.42;53.86;100902.13;5020229;28;20046;-83
2022/07/31 11:36:16;;;;;;;8.05;3.42;;;;;;;28.01;53.16;100881.13;5021505;28;20081;-83
2022/07/31 11:38:45;;;;;;;6.13;3.70;;;;;;;28.02;52.60;100890.81;5040198;28;20080;-84
2022/07/31 11:41:12;;;;;;;5.07;3.92;;;;;;;28.06;52.63;100883.84;5020569;28;20092;-83
2022/07/31 11:43:43;;;;;;;5.25;3.75;;;;;;;27.67;54.80;100890.72;5016129;28;20053;-82
2022/07/31 11:46:10;;;;;;;7.88;3.78;;;;;;;27.63;54.55;100889.63;5015396;28;20429;-83
2022/07/31 11:48:38;;;;;;;6.38;3.40;;;;;;;27.28;54.78;100890.25;5020598;28;20050;-85
2022/07/31 11:51:06;;;;;;;5.35;3.63;;;;;;;27.51;54.58;100871.00;5010428;28;20128;-85
2022/07/31 11:53:39;;;;;;;6.20;3.70;;;;;;;27.41;54.79;100870.97;5019905;28;20137;-84
2022/07/31 11:56:06;;;;;;;5.05;3.40;;;;;;;28.07;53.70;100860.44;5016535;28;20075;-85
2022/07/31 11:58:33;;;;;;;8.65;3.70;;;;;;;28.56;52.69;100865.34;5019365;28;20195;-83
2022/07/31 12:01:01;;;;;;;5.28;3.40;;;;;;;28.92;52.48;100868.84;5013910;28;20046;-83
2022/07/31 12:03:30;;;;;;;3.92;3.58;;;;;;;28.41;53.13;100863.47;5019145;28;20424;-83
2022/07/31 12:05:57;;;;;;;4.10;3.38;;;;;;;27.97;54.31;100863.91;5011936;28;20085;-84
2022/07/31 12:08:26;;;;;;;4.05;3.25;;;;;;;28.17;53.48;100865.03;5010584;28;20071;-84
2022/07/31 12:10:53;;;;;;;8.20;3.83;;;;;;;27.88;54.07;100849.41;5025105;28;20042;-84
2022/07/31 12:13:27;;;;;;;5.00;3.67;;;;;;;27.63;54.46;100847.44;5015642;28;20065;-86
2022/07/31 12:15:57;;;;;;;6.07;3.97;;;;;;;28.05;53.44;100849.94;5012733;28;20050;-85
2022/07/31 12:18:24;;;;;;;4.70;3.85;;;;;;;28.00;51.96;100846.44;5022783;28;20057;-83
2022/07/31 12:23:43;;;;;;;4.88;3.92;;;;;;;28.43;51.38;100855.91;5019249;28;20513;-83
2022/07/31 12:26:12;;;;;;;7.43;4.18;;;;;;;28.09;51.94;100847.53;5019380;28;20136;-83
2022/07/31 12:28:39;;;;;;;5.10;3.97;;;;;;;28.26;52.25;100855.41;5021057;28;20050;-85
2022/07/31 12:31:06;;;;;;;10.18;4.15;;;;;;;28.06;52.13;100851.56;5002435;28;20046;-84
2022/07/31 12:33:46;;;;;;;6.13;3.70;;;;;;;28.22;52.80;100855.13;5016105;28;20054;-85
2022/07/31 12:36:15;;;;;;;4.15;3.63;;;;;;;28.04;53.44;100852.91;5019370;28;20081;-83
2022/07/31 12:38:44;;;;;;;5.75;3.90;;;;;;;27.99;53.89;100834.88;5014299;28;20125;-82